Time;durP1;ratioP1;P1;durP2;ratioP2;P2;SDS_P1;SDS_P2;PMS_P1;PMS_P2;Temp;Humidity;BMP_temperature;BMP_pressure;BME280_temperature;BME280_humidity;BME280_pressure;Samples;Min_cycle;Max_cycle;Signal;HPM_P1;HPM_P2
2022/09/21 00:00:04;;;;;;;8.07;7.37;;;;;;;9.27;99.21;101582.69;4880684;29;20121;-78
2022/09/21 00:02:30;;;;;;;5.73;5.23;;;;;;;9.28;99.38;101587.00;4880745;29;20041;-77
2022/09/21 00:04:55;;;;;;;5.00;4.50;;;;;;;9.26;98.75;101589.81;4880214;29;20104;-77
2022/09/21 00:07:21;;;;;;;4.70;3.30;;;;;;;9.17;99.37;101576.47;4879988;29;20101;-79
2022/09/21 00:09:46;;;;;;;5.30;3.13;;;;;;;9.20;99.31;101586.81;4880070;29;20028;-75
2022/09/21 00:12:11;;;;;;;3.60;3.10;;;;;;;9.17;99.71;101579.13;4879857;29;20048;-74
2022/09/21 00:14:37;;;;;;;3.50;2.80;;;;;;;9.03;99.93;101574.19;4880015;29;20033;-76
2022/09/21 00:17:03;;;;;;;3.33;3.03;;;;;;;9.11;99.61;101584.97;4879930;29;20041;-76
2022/09/21 00:19:30;;;;;;;5.97;2.97;;;;;;;9.07;99.53;101588.88;4879774;29;20061;-75
2022/09/21 00:21:56;;;;;;;6.87;3.03;;;;;;;9.05;99.48;101588.16;4879733;29;20412;-75
2022/09/21 00:24:22;;;;;;;6.07;3.20;;;;;;;9.09;99.35;101593.06;4879977;29;20044;-77
2022/09/21 00:26:48;;;;;;;4.27;2.30;;;;;;;9.13;99.50;101598.97;4862879;29;20053;-76
2022/09/21 00:29:13;;;;;;;4.10;2.67;;;;;;;9.12;99.22;101594.63;4879596;29;20100;-76
2022/09/21 00:31:39;;;;;;;2.47;2.23;;;;;;;9.17;99.46;101600.38;4877286;29;20409;-77
2022/09/21 00:34:06;;;;;;;3.70;2.40;;;;;;;9.20;98.93;101608.06;4861287;29;20132;-76
2022/09/21 00:36:33;;;;;;;2.90;2.40;;;;;;;9.24;99.15;101614.81;4859709;29;20070;-75
2022/09/21 00:39:00;;;;;;;4.00;2.53;;;;;;;9.23;99.22;101621.09;4860813;29;20140;-76
2022/09/21 00:41:27;;;;;;;2.77;2.20;;;;;;;9.26;98.53;101618.22;4859899;29;20156;-76
2022/09/21 00:44:14;;;;;;;2.90;2.33;;;;;;;9.28;98.71;101632.19;4860808;29;20033;-77
2022/09/21 00:46:40;;;;;;;2.43;2.23;;;;;;;9.25;98.72;101633.31;4860819;29;20042;-76
2022/09/21 00:49:07;;;;;;;4.17;2.43;;;;;;;9.19;98.69;101625.00;4860615;29;20403;-76
2022/09/21 00:51:33;;;;;;;3.10;2.37;;;;;;;9.20;98.53;101626.69;4860805;29;20047;-76
2022/09/21 00:54:08;;;;;;;2.37;1.90;;;;;;;9.23;98.62;101631.72;4860507;29;20049;-75
2022/09/21 00:56:36;;;;;;;3.63;2.87;;;;;;;9.09;98.98;101611.69;4860655;29;20489;-75
2022/09/21 00:59:02;;;;;;;3.50;2.10;;;;;;;9.21;99.09;101628.38;4860665;29;20037;-75
2022/09/21 01:01:28;;;;;;;2.30;2.10;;;;;;;9.20;98.94;101632.00;4860648;29;20141;-76
2022/09/21 01:03:56;;;;;;;3.17;2.60;;;;;;;9.17;98.94;101627.78;4860287;29;20540;-75
2022/09/21 01:06:22;;;;;;;2.67;2.28;;;;;;;9.14;98.46;101638.69;4860196;29;20041;-75
2022/09/21 01:08:52;;;;;;;4.73;2.37;;;;;;;9.15;98.55;101634.22;4860265;29;20416;-76
2022/09/21 01:11:26;;;;;;;6.43;1.97;;;;;;;9.15;99.17;101636.88;4860647;29;20042;-76
2022/09/21 01:14:10;;;;;;;3.03;2.30;;;;;;;9.11;99.25;101641.63;4860195;29;20043;-76
2022/09/21 01:16:54;;;;;;;2.77;1.83;;;;;;;9.08;98.98;101644.53;4860315;29;20041;-75
2022/09/21 01:19:46;;;;;;;2.77;2.23;;;;;;;8.99;99.92;101642.69;4860373;29;20057;-76
2022/09/21 01:22:12;;;;;;;2.23;2.03;;;;;;;8.90;100.00;101649.59;4858451;29;20061;-75
2022/09/21 01:24:59;;;;;;;2.83;2.23;;;;;;;8.85;100.00;101643.84;4860148;29;20134;-75
2022/09/21 01:27:49;;;;;;;2.30;2.00;;;;;;;8.82;100.00;101646.75;4860016;29;20365;-76
2022/09/21 01:30:18;;;;;;;4.73;2.23;;;;;;;8.72;100.00;101651.16;4860185;29;20132;-77
2022/09/21 01:32:46;;;;;;;;;;;;;;;8.75;100.00;101653.56;4860636;29;20087;-76
2022/09/21 01:35:19;;;;;;;3.33;2.60;;;;;;;8.67;100.00;101658.66;4860027;29;19920;-74
2022/09/21 01:37:51;;;;;;;2.27;2.07;;;;;;;8.63;100.00;101667.84;4859887;29;20041;-75
2022/09/21 01:40:22;;;;;;;3.13;2.30;;;;;;;8.59;100.00;101667.25;4860245;29;20133;-77
2022/09/21 01:42:52;;;;;;;3.77;2.40;;;;;;;8.51;100.00;101659.09;4860158;29;20105;-76
2022/09/21 01:45:26;;;;;;;2.90;2.35;;;;;;;8.55;100.00;101663.19;4860257;29;20090;-76
2022/09/21 01:47:55;;;;;;;4.47;2.20;;;;;;;8.55;100.00;101657.03;4860181;29;20037;-77
2022/09/21 01:50:21;;;;;;;2.30;2.10;;;;;;;8.54;100.00;101664.16;4864660;29;20061;-75
2022/09/21 01:53:01;;;;;;;2.63;1.90;;;;;;;8.63;100.00;101668.69;4870316;29;20052;-78
2022/09/21 01:55:55;;;;;;;3.20;2.43;;;;;;;8.68;100.00;101674.47;4879119;29;20034;-74
2022/09/21 01:58:41;;;;;;;3.43;2.27;;;;;;;8.73;100.00;101668.78;4882712;29;20103;-76
2022/09/21 02:01:10;;;;;;;2.27;2.00;;;;;;;8.79;100.00;101676.22;4879904;29;20037;-77
2022/09/21 02:03:42;;;;;;;2.70;2.40;;;;;;;8.83;100.00;101680.31;4873323;29;20497;-77
2022/09/21 02:06:08;;;;;;;7.67;2.37;;;;;;;8.83;100.00;101675.00;4872166;29;20048;-77
2022/09/21 02:08:36;;;;;;;3.30;2.23;;;;;;;8.71;100.00;101664.56;4865751;29;20094;-77
2022/09/21 02:11:04;;;;;;;2.15;1.83;;;;;;;8.77;100.00;101675.53;4862350;29;20132;-77
2022/09/21 02:13:34;;;;;;;2.10;1.90;;;;;;;8.74;100.00;101681.09;4866092;29;20038;-76
2022/09/21 02:16:05;;;;;;;4.67;2.53;;;;;;;8.72;100.00;101688.34;4860565;29;20041;-75
2022/09/21 02:19:01;;;;;;;2.07;1.87;;;;;;;8.64;100.00;101691.63;4859823;29;20069;-75
2022/09/21 02:21:30;;;;;;;5.03;2.00;;;;;;;8.56;100.00;101687.91;4859509;29;20101;-76
2022/09/21 02:24:01;;;;;;;2.20;2.00;;;;;;;8.47;100.00;101686.03;4859502;29;20046;-76
2022/09/21 02:26:35;;;;;;;3.13;2.33;;;;;;;8.42;100.00;101690.88;4859731;29;20133;-75
2022/09/21 02:29:11;;;;;;;2.47;1.90;;;;;;;8.41;100.00;101694.50;4859726;29;20038;-75
2022/09/21 02:31:56;;;;;;;2.67;2.00;;;;;;;8.37;100.00;101697.38;4859188;29;20045;-76
2022/09/21 02:34:39;;;;;;;5.20;2.60;;;;;;;8.31;100.00;101700.50;4860790;29;20558;-75
2022/09/21 02:37:33;;;;;;;3.07;2.47;;;;;;;8.30;100.00;101701.47;4859767;29;20038;-76
2022/09/21 02:40:25;;;;;;;3.50;2.53;;;;;;;8.31;100.00;101708.47;4855304;29;20060;-75
2022/09/21 02:43:25;;;;;;;5.10;2.40;;;;;;;8.23;100.00;101700.31;4860234;29;20135;-76
2022/09/21 02:45:56;;;;;;;3.37;2.23;;;;;;;8.26;100.00;101713.31;4859721;29;20057;-76
2022/09/21 02:48:34;;;;;;;7.53;2.33;;;;;;;8.21;100.00;101707.53;4859891;29;20034;-76
2022/09/21 02:51:09;;;;;;;7.88;2.50;;;;;;;8.30;100.00;101725.38;4859771;29;20105;-76
2022/09/21 02:53:37;;;;;;;7.87;3.20;;;;;;;8.33;100.00;101725.16;4859562;29;20497;-77
2022/09/21 02:56:40;;;;;;;6.93;2.60;;;;;;;8.35;100.00;101725.03;4858971;29;20401;-77
2022/09/21 02:59:07;;;;;;;7.13;2.70;;;;;;;8.38;100.00;101723.00;4843277;29;20140;-76
2022/09/21 03:01:33;;;;;;;5.60;2.70;;;;;;;8.47;100.00;101729.34;4859486;29;20458;-77
2022/09/21 03:03:59;;;;;;;4.77;2.10;;;;;;;8.53;100.00;101730.66;4860940;29;20038;-75
2022/09/21 03:06:25;;;;;;;5.50;2.73;;;;;;;8.53;100.00;101728.00;4864735;29;20041;-76
2022/09/21 03:08:51;;;;;;;3.63;2.37;;;;;;;8.62;100.00;101740.50;4867087;29;20042;-76
2022/09/21 03:11:18;;;;;;;5.37;2.47;;;;;;;8.53;100.00;101722.69;4863473;29;20418;-76
2022/09/21 03:13:43;;;;;;;5.37;3.33;;;;;;;8.63;100.00;101737.72;4863188;29;20061;-75
2022/09/21 03:16:11;;;;;;;3.83;2.30;;;;;;;8.72;100.00;101741.47;4863001;29;20082;-76
2022/09/21 03:18:39;;;;;;;4.10;2.10;;;;;;;8.79;100.00;101747.94;4862344;29;20060;-76
2022/09/21 03:21:05;;;;;;;5.72;2.95;;;;;;;8.79;100.00;101733.81;4863473;29;20044;-77
2022/09/21 03:23:30;;;;;;;8.10;3.07;;;;;;;8.92;100.00;101756.56;4862628;29;20057;-77
2022/09/21 03:25:56;;;;;;;2.90;2.37;;;;;;;8.92;100.00;101756.56;4862400;29;20045;-76
2022/09/21 03:28:22;;;;;;;3.90;2.57;;;;;;;8.96;100.00;101759.81;4863332;29;20578;-75
2022/09/21 03:30:49;;;;;;;5.40;3.23;;;;;;;8.98;100.00;101758.75;4864081;29;20512;-76
2022/09/21 03:33:16;;;;;;;5.90;2.80;;;;;;;9.02;100.00;101763.78;4863280;29;20033;-76
2022/09/21 03:35:42;;;;;;;6.03;3.77;;;;;;;9.06;100.00;101770.53;4863965;29;20064;-75
2022/09/21 03:38:08;;;;;;;3.30;2.83;;;;;;;9.10;100.00;101774.63;4864946;29;20045;-77
2022/09/21 03:40:34;;;;;;;3.97;2.63;;;;;;;9.05;100.00;101771.50;4863692;29;20493;-75
2022/09/21 03:43:25;;;;;;;5.10;3.13;;;;;;;9.15;100.00;101775.06;4861790;29;20094;-75
2022/09/21 03:45:51;;;;;;;2.67;2.40;;;;;;;9.06;100.00;101759.91;4862578;29;20053;-75
2022/09/21 03:48:16;;;;;;;4.50;2.30;;;;;;;9.12;100.00;101778.81;4862485;29;20057;-75
2022/09/21 03:50:42;;;;;;;3.73;2.47;;;;;;;9.11;100.00;101784.28;4862962;29;20042;-75
2022/09/21 03:53:09;;;;;;;3.13;2.53;;;;;;;9.12;100.00;101791.28;4877688;29;20128;-77
2022/09/21 03:55:35;;;;;;;3.70;2.33;;;;;;;9.14;100.00;101789.34;4883822;29;20060;-77
2022/09/21 03:58:01;;;;;;;3.77;3.00;;;;;;;9.18;100.00;101798.72;4884615;29;20081;-75
2022/09/21 04:00:27;;;;;;;4.80;2.50;;;;;;;9.19;100.00;101797.75;4885106;29;20052;-76
2022/09/21 04:02:53;;;;;;;3.97;2.50;;;;;;;9.22;100.00;101803.66;4885284;29;20038;-77
2022/09/21 04:05:19;;;;;;;4.90;3.20;;;;;;;9.25;100.00;101799.91;4883857;29;20066;-75
2022/09/21 04:07:45;;;;;;;3.07;2.53;;;;;;;9.30;100.00;101811.00;4883262;29;20021;-74
2022/09/21 04:10:14;;;;;;;5.40;2.60;;;;;;;9.32;100.00;101814.38;4882990;29;20029;-75
2022/09/21 04:12:42;;;;;;;4.25;1.85;;;;;;;9.31;100.00;101815.34;4882892;29;20045;-73
2022/09/21 04:15:10;;;;;;;2.50;2.30;;;;;;;9.31;100.00;101810.03;4883177;29;20021;-77
2022/09/21 04:18:26;;;;;;;2.30;2.05;;;;;;;9.31;100.00;101824.19;4881060;29;20041;-78
2022/09/21 04:20:53;;;;;;;3.83;2.50;;;;;;;9.30;100.00;101829.63;4866153;29;20050;-77
2022/09/21 04:23:19;;;;;;;3.17;2.23;;;;;;;9.30;100.00;101832.28;4882082;29;20046;-77
2022/09/21 04:25:47;;;;;;;2.73;2.07;;;;;;;9.38;100.00;101828.97;4866560;29;20053;-78
2022/09/21 04:28:13;;;;;;;3.05;2.20;;;;;;;9.41;100.00;101834.88;4863325;29;20045;-75
2022/09/21 04:30:39;;;;;;;3.90;2.43;;;;;;;9.35;100.00;101824.75;4855637;29;20048;-77
2022/09/21 04:33:05;;;;;;;3.47;2.60;;;;;;;9.44;100.00;101839.09;4852746;29;20042;-76
2022/09/21 04:35:30;;;;;;;4.63;2.80;;;;;;;9.45;100.00;101849.59;4855961;29;20037;-77
2022/09/21 04:37:56;;;;;;;4.00;2.73;;;;;;;9.39;100.00;101842.13;4856040;29;20030;-78
2022/09/21 04:40:22;;;;;;;4.20;2.37;;;;;;;9.35;100.00;101846.03;4868679;29;20041;-77
2022/09/21 04:42:54;;;;;;;3.50;2.17;;;;;;;9.38;100.00;101845.75;4876607;29;20037;-77
2022/09/21 04:45:23;;;;;;;2.40;2.17;;;;;;;9.46;100.00;101848.63;4870121;29;20561;-76
2022/09/21 04:47:48;;;;;;;3.40;2.50;;;;;;;9.52;100.00;101853.41;4880224;29;20055;-74
2022/09/21 04:50:15;;;;;;;2.87;2.60;;;;;;;9.54;100.00;101854.16;4880590;29;20038;-78
2022/09/21 04:52:40;;;;;;;4.13;2.67;;;;;;;9.49;100.00;101848.34;4879711;29;20040;-78
2022/09/21 04:55:07;;;;;;;5.20;3.03;;;;;;;9.55;100.00;101860.31;4883443;29;20013;-77
2022/09/21 04:57:34;;;;;;;6.10;2.20;;;;;;;9.51;100.00;101843.75;4881960;29;20068;-76
2022/09/21 05:00:00;;;;;;;3.60;3.27;;;;;;;9.63;100.00;101860.50;4883800;29;20044;-77
2022/09/21 05:02:25;;;;;;;4.93;2.43;;;;;;;9.63;100.00;101861.34;4881042;29;20045;-76
2022/09/21 05:04:51;;;;;;;7.70;3.77;;;;;;;9.54;100.00;101854.16;4867557;29;20030;-76
2022/09/21 05:07:16;;;;;;;3.17;2.40;;;;;;;9.67;100.00;101863.75;4867162;29;20082;-75
2022/09/21 05:13:22;;;;;;;7.07;3.17;;;;;;;9.41;100.00;101837.53;4865520;29;20497;-77
2022/09/21 05:15:48;;;;;;;3.63;2.53;;;;;;;9.37;100.00;101851.22;4867859;29;20037;-77
2022/09/21 05:21:37;;;;;;;4.73;2.70;;;;;;;9.50;100.00;101883.75;4841813;29;20136;-76
2022/09/21 05:24:08;;;;;;;3.67;2.47;;;;;;;9.52;100.00;101880.00;4812212;29;20057;-76
2022/09/21 05:26:59;;;;;;;3.10;2.57;;;;;;;9.48;100.00;101861.78;4842229;29;20045;-75
2022/09/21 05:29:47;;;;;;;;;;;;;;;9.72;100.00;101885.47;4816511;29;20106;-76
2022/09/21 05:33:03;;;;;;;;;;;;;;;;;;;;;
2022/09/21 05:36:07;;;;;;;3.63;2.80;;;;;;;9.76;99.84;101892.22;4845227;29;20172;-76
2022/09/21 05:39:16;;;;;;;4.37;3.30;;;;;;;9.44;99.81;101839.09;4848072;29;20049;-76
2022/09/21 05:45:22;;;;;;;2.90;2.60;;;;;;;9.62;99.78;101851.69;4810450;29;20061;-73
2022/09/21 05:48:08;;;;;;;5.73;3.33;;;;;;;10.07;99.25;101899.28;4810814;29;20058;-71
2022/09/21 05:51:05;;;;;;;3.00;2.70;;;;;;;10.22;98.01;101910.47;4857723;29;20038;-72
2022/09/21 05:53:54;;;;;;;2.90;2.60;;;;;;;10.28;96.91;101903.75;4831979;29;20050;-75
2022/09/21 05:56:52;;;;;;;3.00;2.67;;;;;;;10.46;96.83;101907.50;4856409;29;20124;-75
2022/09/21 06:00:16;;;;;;;;;;;;;;;10.63;96.66;101909.50;4793379;29;20082;-74
2022/09/21 06:02:52;;;;;;;4.53;2.97;;;;;;;10.78;94.94;101900.19;4843611;29;19920;-75
2022/09/21 06:05:48;;;;;;;5.37;3.97;;;;;;;10.93;94.53;101915.78;4842580;29;20542;-74
2022/09/21 06:08:16;;;;;;;4.17;3.50;;;;;;;10.93;93.98;101916.63;4843236;29;20068;-76
2022/09/21 06:14:32;;;;;;;5.67;2.80;;;;;;;11.01;93.18;101902.63;4807178;29;20147;-74
2022/09/21 06:17:01;;;;;;;2.77;2.47;;;;;;;10.78;92.47;101875.34;4808428;29;20133;-76
2022/09/21 06:19:49;;;;;;;;;;;;;;;11.02;92.81;101914.97;4874955;29;20068;-75
2022/09/21 06:26:04;;;;;;;4.00;2.55;;;;;;;11.04;92.38;101913.84;4860224;29;20105;-75
2022/09/21 06:32:50;;;;;;;4.03;2.63;;;;;;;11.11;91.09;101906.13;4886901;29;20101;-74
2022/09/21 06:38:48;;;;;;;3.03;2.70;;;;;;;11.09;89.94;101900.09;4858047;29;20098;-76
2022/09/21 06:41:14;;;;;;;3.83;3.00;;;;;;;11.10;90.60;101928.44;4892236;29;20132;-76
2022/09/21 06:43:40;;;;;;;5.20;3.60;;;;;;;11.03;91.04;101930.81;4895405;29;20037;-75
2022/09/21 06:46:05;;;;;;;3.43;2.97;;;;;;;10.99;91.88;101934.75;4895751;29;20077;-77
2022/09/21 06:48:33;;;;;;;3.80;2.37;;;;;;;10.86;91.59;101942.97;4873509;29;20076;-75
2022/09/21 06:51:00;;;;;;;3.87;2.33;;;;;;;10.72;92.40;101930.03;4895919;29;20032;-75
2022/09/21 06:53:27;;;;;;;7.90;3.03;;;;;;;10.59;92.94;101941.88;4898410;29;20041;-74
2022/09/21 06:56:00;;;;;;;4.13;3.63;;;;;;;10.49;93.71;101941.84;4888864;29;20131;-74
2022/09/21 06:58:26;;;;;;;4.77;2.80;;;;;;;10.46;93.60;101942.13;4886962;29;20037;-75
2022/09/21 07:00:54;;;;;;;9.03;2.97;;;;;;;10.44;93.75;101949.41;4886589;29;20480;-75
2022/09/21 07:03:24;;;;;;;4.60;3.08;;;;;;;10.42;93.37;101944.22;4889033;29;20037;-74
2022/09/21 07:05:55;;;;;;;4.73;3.00;;;;;;;10.35;93.09;101942.19;4874804;29;20041;-76
2022/09/21 07:08:26;;;;;;;4.22;2.90;;;;;;;10.46;93.08;101956.28;4891878;29;20052;-77
2022/09/21 07:11:13;;;;;;;4.07;2.60;;;;;;;10.28;92.42;101922.41;4892318;29;20052;-75
2022/09/21 07:16:54;;;;;;;;;;;;;;;10.73;91.42;101952.19;4872922;29;20076;-74
2022/09/21 07:19:49;;;;;;;3.20;2.57;;;;;;;10.89;90.99;101957.00;4862126;29;19923;-76
2022/09/21 07:25:33;;;;;;;3.77;2.27;;;;;;;10.89;88.87;101943.69;4870544;29;20041;-75
2022/09/21 07:28:07;;;;;;;4.27;3.87;;;;;;;10.90;88.92;101929.38;4880105;29;20052;-77
2022/09/21 07:30:56;;;;;;;2.80;2.60;;;;;;;10.84;88.42;101912.94;4858776;29;20136;-79
2022/09/21 07:36:31;;;;;;;4.03;2.90;;;;;;;11.25;88.47;101950.22;4828527;29;19919;-75
2022/09/21 07:38:56;;;;;;;2.87;2.53;;;;;;;11.26;87.10;101930.56;4863805;29;20093;-76
2022/09/21 07:41:22;;;;;;;2.93;2.63;;;;;;;11.40;86.67;101936.34;4864296;29;20029;-75
2022/09/21 07:43:52;;;;;;;3.60;2.97;;;;;;;11.78;85.75;101980.91;4864259;29;20489;-76
2022/09/21 07:46:19;;;;;;;5.93;3.37;;;;;;;11.82;85.36;101970.78;4880418;29;20041;-76
2022/09/21 07:48:46;;;;;;;5.35;2.33;;;;;;;11.90;85.51;101980.78;4848588;29;20101;-79
2022/09/21 07:51:13;;;;;;;3.43;2.23;;;;;;;11.64;85.11;101964.44;4881153;29;20048;-75
2022/09/21 07:53:41;;;;;;;3.13;2.30;;;;;;;11.55;85.96;101973.28;4848725;29;20045;-75
2022/09/21 07:56:12;;;;;;;2.67;2.30;;;;;;;11.47;86.52;101969.47;4848899;29;20058;-75
2022/09/21 08:01:24;;;;;;;4.10;2.60;;;;;;;11.45;86.22;101976.78;4864364;29;20045;-76
2022/09/21 08:03:54;;;;;;;3.73;2.37;;;;;;;11.44;86.46;101984.91;4879617;29;20048;-73
2022/09/21 08:06:21;;;;;;;2.80;2.50;;;;;;;11.18;86.03;101949.94;4848625;29;20132;-76
2022/09/21 08:08:48;;;;;;;2.70;2.17;;;;;;;11.22;85.98;101950.50;4881156;29;20088;-76
2022/09/21 08:11:15;;;;;;;3.10;2.70;;;;;;;11.17;85.97;101946.41;4849688;29;20040;-73
2022/09/21 08:13:41;;;;;;;3.03;2.73;;;;;;;11.41;85.76;101969.19;4885268;29;20041;-73
2022/09/21 08:16:08;;;;;;;5.33;2.90;;;;;;;11.44;86.29;101960.91;4861447;29;20016;-77
2022/09/21 08:18:40;;;;;;;3.00;2.40;;;;;;;11.41;85.24;101948.69;4872494;29;20020;-76
2022/09/21 08:21:09;;;;;;;3.33;2.60;;;;;;;11.47;84.33;101942.81;4872456;29;20053;-75
2022/09/21 08:23:39;;;;;;;2.45;2.25;;;;;;;11.70;85.10;101961.22;4872392;29;20048;-77
2022/09/21 08:26:06;;;;;;;2.40;2.00;;;;;;;11.80;83.44;101975.41;4883361;29;20160;-75
2022/09/21 08:28:35;;;;;;;4.93;2.27;;;;;;;11.93;83.55;101986.66;4866695;29;20058;-74
2022/09/21 08:31:06;;;;;;;3.40;1.80;;;;;;;12.00;83.31;101973.59;4868080;29;20037;-75
2022/09/21 08:33:32;;;;;;;5.07;2.20;;;;;;;11.91;83.10;101940.59;4863822;29;20105;-76
2022/09/21 08:36:24;;;;;;;3.10;2.43;;;;;;;12.02;83.20;101961.78;4864067;29;20143;-75
2022/09/21 08:38:53;;;;;;;3.83;2.50;;;;;;;12.05;83.13;101979.34;4849696;29;20056;-77
2022/09/21 08:42:44;;;;;;;3.43;2.67;;;;;;;11.98;83.94;101976.41;4804623;29;20554;-75
2022/09/21 08:45:23;;;;;;;3.67;2.83;;;;;;;11.77;84.23;101948.97;4790768;29;20076;-76
2022/09/21 08:48:12;;;;;;;2.70;2.40;;;;;;;11.94;84.48;101975.00;4805875;29;20613;-75
2022/09/21 08:50:47;;;;;;;6.18;2.53;;;;;;;12.03;83.87;101987.50;4818648;29;20065;-77
2022/09/21 08:53:20;;;;;;;2.50;2.30;;;;;;;12.02;82.92;101982.28;4823258;29;20431;-75
2022/09/21 08:55:49;;;;;;;2.70;2.03;;;;;;;12.07;83.20;101980.88;4823604;29;20578;-74
2022/09/21 08:58:36;;;;;;;2.50;2.30;;;;;;;12.12;83.56;101979.59;4823051;29;20046;-75
2022/09/21 09:01:20;;;;;;;3.37;2.40;;;;;;;12.24;83.09;101987.31;4821765;29;20141;-76
2022/09/21 09:03:51;;;;;;;4.40;3.30;;;;;;;12.36;81.99;101982.66;4822169;29;20076;-76
2022/09/21 09:06:32;;;;;;;4.87;2.80;;;;;;;12.43;82.20;101983.75;4821959;29;20143;-75
2022/09/21 09:09:00;;;;;;;2.27;2.10;;;;;;;12.50;80.84;101979.53;4806435;29;20051;-74
2022/09/21 09:11:44;;;;;;;2.20;1.80;;;;;;;12.62;79.70;101983.69;4829576;29;20046;-74
2022/09/21 09:14:22;;;;;;;4.07;2.50;;;;;;;12.62;80.51;101986.38;4879148;29;20068;-74
2022/09/21 09:17:02;;;;;;;2.93;1.87;;;;;;;12.38;80.59;101980.69;4879543;29;20044;-74
2022/09/21 09:20:03;;;;;;;3.80;2.30;;;;;;;12.22;81.20;101991.13;4862633;29;20059;-75
2022/09/21 09:23:11;;;;;;;2.40;2.20;;;;;;;12.08;80.82;101990.56;4879202;29;20108;-76
2022/09/21 09:25:40;;;;;;;2.37;2.17;;;;;;;12.03;81.58;101987.50;4878832;29;20053;-77
2022/09/21 09:28:39;;;;;;;2.42;2.22;;;;;;;12.08;81.78;101990.56;4878764;29;20477;-75
2022/09/21 09:31:30;;;;;;;2.10;1.90;;;;;;;12.08;80.72;101993.25;4859448;29;20531;-73
2022/09/21 09:34:04;;;;;;;2.17;1.90;;;;;;;12.10;80.42;101993.94;4878804;29;20473;-75
2022/09/21 09:36:32;;;;;;;2.37;2.00;;;;;;;12.17;80.65;101996.91;4878586;29;20041;-76
2022/09/21 09:39:02;;;;;;;4.43;1.90;;;;;;;12.33;80.71;101994.47;4878642;29;20068;-75
2022/09/21 09:41:57;;;;;;;2.47;2.27;;;;;;;12.49;80.21;102003.72;4878854;29;20369;-75
2022/09/21 09:44:25;;;;;;;2.50;2.03;;;;;;;12.56;79.62;102004.81;4878585;29;20045;-74
2022/09/21 09:47:24;;;;;;;4.28;2.03;;;;;;;12.64;79.81;102010.28;4879299;29;20045;-75
2022/09/21 09:50:20;;;;;;;3.67;2.37;;;;;;;12.74;79.49;102012.94;4879171;29;20381;-76
2022/09/21 09:56:47;;;;;;;3.77;2.43;;;;;;;12.87;78.49;102005.41;4877570;29;20452;-77
2022/09/21 09:59:34;;;;;;;2.83;2.10;;;;;;;12.92;79.04;102012.00;4846876;29;20041;-76
2022/09/21 10:02:02;;;;;;;5.18;3.42;;;;;;;12.96;77.58;102015.22;4862210;29;20036;-75
2022/09/21 10:04:28;;;;;;;2.67;2.13;;;;;;;13.00;77.66;102013.94;4878844;29;20048;-74
2022/09/21 10:08:02;;;;;;;;;;;;;;;;;;;;;
2022/09/21 10:16:02;;;;;;;2.33;2.13;;;;;;;13.22;76.29;102026.09;4814453;29;20414;-75
2022/09/21 10:22:06;;;;;;;1.50;1.40;;;;;;;13.17;75.35;101998.94;4827901;29;20074;-74
2022/09/21 10:25:07;;;;;;;1.83;1.73;;;;;;;13.46;75.52;102029.06;4841665;29;20053;-74
2022/09/21 10:27:34;;;;;;;2.50;1.90;;;;;;;13.40;74.52;102020.81;4813970;29;20068;-75
2022/09/21 10:30:00;;;;;;;2.03;1.83;;;;;;;13.37;74.77;102010.41;4842669;29;20171;-74
2022/09/21 10:32:27;;;;;;;3.33;2.47;;;;;;;13.38;75.33;102020.13;4827674;29;20124;-76
2022/09/21 10:35:00;;;;;;;3.90;1.70;;;;;;;13.33;75.76;102026.75;4842624;29;20518;-74
2022/09/21 10:37:36;;;;;;;3.00;2.43;;;;;;;13.23;76.11;102036.66;4842902;29;20134;-74
2022/09/21 10:40:02;;;;;;;4.30;1.80;;;;;;;12.93;79.99;102039.56;4842976;29;20594;-75
2022/09/21 10:42:34;;;;;;;4.10;3.57;;;;;;;12.40;86.70;102042.81;4842846;29;20046;-77
2022/09/21 10:45:14;;;;;;;2.40;1.90;;;;;;;11.88;90.12;102041.47;4848415;29;20037;-75
2022/09/21 10:47:45;;;;;;;3.67;2.70;;;;;;;11.53;92.09;102018.75;4882693;29;20127;-76
2022/09/21 10:50:27;;;;;;;3.63;2.40;;;;;;;11.59;94.38;102044.06;4882234;29;20129;-75
2022/09/21 10:53:12;;;;;;;5.70;2.73;;;;;;;11.55;96.46;102042.63;4881874;29;20045;-75
2022/09/21 10:55:42;;;;;;;4.93;2.60;;;;;;;11.54;95.83;102048.94;4881436;29;20037;-74
2022/09/21 10:58:13;;;;;;;3.00;2.60;;;;;;;11.47;95.47;102028.16;4863739;29;20033;-75
2022/09/21 11:00:50;;;;;;;3.00;2.70;;;;;;;11.48;94.79;102045.84;4881358;29;20037;-76
2022/09/21 11:03:59;;;;;;;4.57;2.83;;;;;;;11.52;95.93;102045.59;4864171;29;20037;-75
2022/09/21 11:06:41;;;;;;;3.35;2.95;;;;;;;11.39;96.37;102024.50;4863556;29;20100;-75
2022/09/21 11:09:22;;;;;;;2.67;2.47;;;;;;;11.64;97.42;102056.00;4881683;29;20135;-75
2022/09/21 11:12:08;;;;;;;3.33;2.80;;;;;;;11.76;96.02;102051.38;4882056;29;20173;-76
2022/09/21 11:14:50;;;;;;;3.20;2.90;;;;;;;11.67;94.66;102041.56;4881078;29;20068;-76
2022/09/21 11:17:38;;;;;;;4.00;3.27;;;;;;;11.82;95.25;102050.84;4881266;29;20120;-75
2022/09/21 11:20:32;;;;;;;3.45;3.05;;;;;;;11.87;94.13;102053.97;4880817;29;20065;-75
2022/09/21 11:23:42;;;;;;;3.63;3.13;;;;;;;12.06;93.94;102050.44;4881561;29;20596;-76
2022/09/21 11:26:19;;;;;;;3.20;2.43;;;;;;;12.22;92.48;102044.53;4881164;29;20135;-76
2022/09/21 11:29:34;;;;;;;3.93;2.93;;;;;;;12.34;90.96;102060.25;4864846;29;20048;-75
2022/09/21 11:32:26;;;;;;;5.47;3.30;;;;;;;12.47;89.14;102048.47;4882212;29;20037;-75
2022/09/21 11:35:10;;;;;;;3.33;2.80;;;;;;;12.64;89.29;102051.22;4882198;29;20472;-75
2022/09/21 11:37:50;;;;;;;2.40;2.17;;;;;;;12.66;86.39;102038.53;4882170;29;20044;-77
2022/09/21 11:40:51;;;;;;;2.40;2.20;;;;;;;12.85;85.84;102047.50;4881727;29;20047;-75
2022/09/21 11:43:28;;;;;;;4.43;1.90;;;;;;;12.88;84.52;102047.19;4881457;29;20413;-75
2022/09/21 11:46:13;;;;;;;2.30;2.10;;;;;;;12.94;85.35;102051.97;4881192;29;20131;-76
2022/09/21 11:48:48;;;;;;;2.70;2.50;;;;;;;12.95;84.72;102048.28;4881541;29;20051;-79
2022/09/21 11:51:37;;;;;;;2.63;1.93;;;;;;;12.98;84.10;102054.19;4883789;29;20069;-76
2022/09/21 11:54:03;;;;;;;2.27;2.07;;;;;;;13.05;84.06;102054.47;4881383;29;20045;-74
2022/09/21 11:56:48;;;;;;;2.13;1.77;;;;;;;13.06;82.64;102055.31;4880492;29;20065;-75
2022/09/21 11:59:51;;;;;;;3.63;2.10;;;;;;;13.03;80.26;102051.09;4882124;29;20519;-76
2022/09/21 12:02:44;;;;;;;3.50;2.50;;;;;;;13.09;82.26;102050.50;4883260;29;20073;-78
2022/09/21 12:05:28;;;;;;;2.40;2.20;;;;;;;13.17;82.07;102047.97;4885793;29;20041;-75
2022/09/21 12:08:22;;;;;;;2.43;2.23;;;;;;;13.19;81.44;102050.47;4897273;29;20040;-76
2022/09/21 12:10:53;;;;;;;5.33;2.57;;;;;;;13.23;81.67;102050.03;4902657;29;20067;-73
2022/09/21 12:13:24;;;;;;;6.27;2.37;;;;;;;13.26;80.56;102056.91;4899909;29;20048;-75
2022/09/21 12:16:04;;;;;;;3.23;2.63;;;;;;;13.07;79.44;102043.63;4900877;29;20040;-75
2022/09/21 12:18:53;;;;;;;3.80;2.43;;;;;;;12.97;79.64;102046.31;4896191;29;20073;-76
2022/09/21 12:21:26;;;;;;;;;;;;;;;12.88;77.59;102063.25;4882861;29;20092;-73
2022/09/21 12:24:04;;;;;;;2.47;2.27;;;;;;;12.81;78.91;102059.47;4881759;29;19991;-74
2022/09/21 12:26:40;;;;;;;3.03;2.03;;;;;;;12.70;78.76;102065.81;4880178;29;20083;-75
2022/09/21 12:29:36;;;;;;;1.93;1.50;;;;;;;12.69;79.24;102067.66;4863773;29;20041;-73
2022/09/21 12:32:06;;;;;;;2.13;2.00;;;;;;;12.67;79.42;102071.44;4878531;29;20055;-69
2022/09/21 12:34:45;;;;;;;3.60;2.00;;;;;;;12.67;81.05;102066.94;4879573;29;20065;-76
2022/09/21 12:37:51;;;;;;;2.30;1.90;;;;;;;12.63;80.42;102064.72;4878982;29;20067;-75
2022/09/21 12:40:27;;;;;;;3.43;2.17;;;;;;;12.55;80.71;102062.78;4879249;29;20132;-77
2022/09/21 12:43:10;;;;;;;3.30;1.90;;;;;;;12.57;81.08;102078.66;4879574;29;20040;-74
2022/09/21 12:45:45;;;;;;;6.30;2.10;;;;;;;12.55;80.82;102076.13;4862937;29;20033;-74
2022/09/21 12:48:31;;;;;;;4.30;2.27;;;;;;;12.56;80.64;102082.31;4879335;29;20127;-77
2022/09/21 12:51:15;;;;;;;3.93;2.13;;;;;;;12.55;80.31;102083.31;4879511;29;20043;-74
2022/09/21 12:53:53;;;;;;;3.93;2.33;;;;;;;12.57;80.59;102084.84;4879515;29;20029;-74
2022/09/21 13:04:42;;;;;;;4.07;2.03;;;;;;;12.40;80.05;102091.75;4821150;29;20614;-74
2022/09/21 13:07:52;;;;;;;2.13;1.70;;;;;;;12.31;79.93;102089.09;4784261;30;20054;-77